sensor_id;sensor_type;location;lat;lon;timestamp;P1;durP1;ratioP1;P2;durP2;ratioP2
62788;SDS011;66401;42.016;21.454;2023-03-29T00:02:22;2.50;;;1.00;;
62788;SDS011;66401;42.016;21.454;2023-03-29T00:04:57;1.37;;;1.27;;
62788;SDS011;66401;42.016;21.454;2023-03-29T00:07:28;2.40;;;1.20;;
62788;SDS011;66401;42.016;21.454;2023-03-29T00:09:57;1.53;;;0.93;;
62788;SDS011;66401;42.016;21.454;2023-03-29T00:12:24;1.80;;;1.03;;
62788;SDS011;66401;42.016;21.454;2023-03-29T00:14:50;1.07;;;0.97;;
62788;SDS011;66401;42.016;21.454;2023-03-29T00:17:15;1.90;;;0.80;;
62788;SDS011;66401;42.016;21.454;2023-03-29T00:19:42;0.83;;;0.83;;
62788;SDS011;66401;42.016;21.454;2023-03-29T00:22:08;2.93;;;1.20;;
62788;SDS011;66401;42.016;21.454;2023-03-29T00:24:34;1.23;;;1.07;;
62788;SDS011;66401;42.016;21.454;2023-03-29T00:27:00;1.90;;;1.00;;
62788;SDS011;66401;42.016;21.454;2023-03-29T00:29:26;2.27;;;0.97;;
62788;SDS011;66401;42.016;21.454;2023-03-29T00:31:51;0.50;;;0.50;;
62788;SDS011;66401;42.016;21.454;2023-03-29T00:34:24;0.87;;;0.73;;
62788;SDS011;66401;42.016;21.454;2023-03-29T00:36:55;0.83;;;0.83;;
62788;SDS011;66401;42.016;21.454;2023-03-29T00:39:22;0.87;;;0.87;;
62788;SDS011;66401;42.016;21.454;2023-03-29T00:42:01;0.90;;;0.90;;
62788;SDS011;66401;42.016;21.454;2023-03-29T00:47:30;1.30;;;1.20;;
62788;SDS011;66401;42.016;21.454;2023-03-29T00:50:05;0.83;;;0.83;;
62788;SDS011;66401;42.016;21.454;2023-03-29T00:52:36;3.43;;;1.00;;
62788;SDS011;66401;42.016;21.454;2023-03-29T00:55:05;1.17;;;0.80;;
62788;SDS011;66401;42.016;21.454;2023-03-29T00:57:34;0.87;;;0.87;;
62788;SDS011;66401;42.016;21.454;2023-03-29T01:00:03;1.00;;;0.90;;
62788;SDS011;66401;42.016;21.454;2023-03-29T01:02:34;0.87;;;0.70;;
62788;SDS011;66401;42.016;21.454;2023-03-29T01:05:10;1.17;;;0.80;;
62788;SDS011;66401;42.016;21.454;2023-03-29T01:07:44;0.87;;;0.87;;
62788;SDS011;66401;42.016;21.454;2023-03-29T01:10:27;1.00;;;0.90;;
62788;SDS011;66401;42.016;21.454;2023-03-29T01:13:05;0.83;;;0.83;;
62788;SDS011;66401;42.016;21.454;2023-03-29T01:15:36;1.07;;;1.00;;
62788;SDS011;66401;42.016;21.454;2023-03-29T01:18:04;0.70;;;0.70;;
62788;SDS011;66401;42.016;21.454;2023-03-29T01:23:51;0.70;;;0.70;;
62788;SDS011;66401;42.016;21.454;2023-03-29T01:31:29;1.67;;;0.80;;
62788;SDS011;66401;42.016;21.454;2023-03-29T01:34:43;1.00;;;0.80;;
62788;SDS011;66401;42.016;21.454;2023-03-29T01:36:53;0.93;;;0.63;;
62788;SDS011;66401;42.016;21.454;2023-03-29T01:39:24;1.63;;;0.80;;
62788;SDS011;66401;42.016;21.454;2023-03-29T01:52:56;4.17;;;0.80;;
62788;SDS011;66401;42.016;21.454;2023-03-29T01:55:30;5.70;;;1.00;;
62788;SDS011;66401;42.016;21.454;2023-03-29T01:57:59;0.53;;;0.53;;
62788;SDS011;66401;42.016;21.454;2023-03-29T02:00:27;2.60;;;0.93;;
62788;SDS011;66401;42.016;21.454;2023-03-29T02:02:55;0.70;;;0.70;;
62788;SDS011;66401;42.016;21.454;2023-03-29T02:05:25;1.50;;;0.70;;
62788;SDS011;66401;42.016;21.454;2023-03-29T02:07:52;0.73;;;0.70;;
62788;SDS011;66401;42.016;21.454;2023-03-29T02:10:19;0.77;;;0.77;;
62788;SDS011;66401;42.016;21.454;2023-03-29T02:12:47;1.03;;;0.93;;
62788;SDS011;66401;42.016;21.454;2023-03-29T02:15:14;0.80;;;0.80;;
62788;SDS011;66401;42.016;21.454;2023-03-29T02:17:42;2.50;;;1.00;;
62788;SDS011;66401;42.016;21.454;2023-03-29T02:25:22;1.30;;;1.10;;
62788;SDS011;66401;42.016;21.454;2023-03-29T02:27:49;1.77;;;1.20;;
62788;SDS011;66401;42.016;21.454;2023-03-29T02:30:15;1.43;;;1.10;;
62788;SDS011;66401;42.016;21.454;2023-03-29T02:33:25;2.77;;;1.23;;
62788;SDS011;66401;42.016;21.454;2023-03-29T02:35:40;1.93;;;1.27;;
62788;SDS011;66401;42.016;21.454;2023-03-29T02:38:17;0.90;;;0.90;;
62788;SDS011;66401;42.016;21.454;2023-03-29T02:40:44;2.00;;;0.80;;
62788;SDS011;66401;42.016;21.454;2023-03-29T02:43:11;1.27;;;1.13;;
62788;SDS011;66401;42.016;21.454;2023-03-29T02:45:39;0.80;;;0.80;;
62788;SDS011;66401;42.016;21.454;2023-03-29T02:48:09;1.20;;;1.10;;
62788;SDS011;66401;42.016;21.454;2023-03-29T02:50:40;2.20;;;1.27;;
62788;SDS011;66401;42.016;21.454;2023-03-29T02:53:13;1.33;;;1.23;;
62788;SDS011;66401;42.016;21.454;2023-03-29T02:55:42;1.90;;;1.37;;
62788;SDS011;66401;42.016;21.454;2023-03-29T02:58:10;1.67;;;1.20;;
62788;SDS011;66401;42.016;21.454;2023-03-29T03:00:38;1.13;;;1.00;;
62788;SDS011;66401;42.016;21.454;2023-03-29T03:03:09;1.40;;;1.30;;
62788;SDS011;66401;42.016;21.454;2023-03-29T03:05:36;1.40;;;1.30;;
62788;SDS011;66401;42.016;21.454;2023-03-29T03:08:02;1.17;;;1.07;;
62788;SDS011;66401;42.016;21.454;2023-03-29T03:10:28;1.30;;;1.30;;
62788;SDS011;66401;42.016;21.454;2023-03-29T03:12:54;1.80;;;1.40;;
62788;SDS011;66401;42.016;21.454;2023-03-29T03:15:19;1.90;;;1.10;;
62788;SDS011;66401;42.016;21.454;2023-03-29T03:17:45;1.33;;;1.03;;
62788;SDS011;66401;42.016;21.454;2023-03-29T03:20:11;1.60;;;1.40;;
62788;SDS011;66401;42.016;21.454;2023-03-29T03:22:38;1.47;;;1.37;;
62788;SDS011;66401;42.016;21.454;2023-03-29T03:25:09;1.30;;;1.07;;
62788;SDS011;66401;42.016;21.454;2023-03-29T03:27:35;2.30;;;1.37;;
62788;SDS011;66401;42.016;21.454;2023-03-29T03:30:03;1.60;;;1.47;;
62788;SDS011;66401;42.016;21.454;2023-03-29T03:32:31;1.23;;;1.13;;
62788;SDS011;66401;42.016;21.454;2023-03-29T03:34:58;3.97;;;1.33;;
62788;SDS011;66401;42.016;21.454;2023-03-29T03:37:23;2.63;;;1.47;;
62788;SDS011;66401;42.016;21.454;2023-03-29T03:39:49;2.80;;;1.80;;
62788;SDS011;66401;42.016;21.454;2023-03-29T03:42:14;1.50;;;1.40;;
62788;SDS011;66401;42.016;21.454;2023-03-29T03:44:40;2.63;;;1.33;;
62788;SDS011;66401;42.016;21.454;2023-03-29T03:47:05;1.70;;;1.43;;
62788;SDS011;66401;42.016;21.454;2023-03-29T03:49:32;1.73;;;1.60;;
62788;SDS011;66401;42.016;21.454;2023-03-29T03:51:57;1.40;;;1.30;;
62788;SDS011;66401;42.016;21.454;2023-03-29T03:54:23;2.10;;;1.37;;
62788;SDS011;66401;42.016;21.454;2023-03-29T03:56:48;1.40;;;1.30;;
62788;SDS011;66401;42.016;21.454;2023-03-29T03:59:14;1.43;;;0.87;;
62788;SDS011;66401;42.016;21.454;2023-03-29T04:01:39;1.37;;;1.27;;
62788;SDS011;66401;42.016;21.454;2023-03-29T04:04:08;2.13;;;1.37;;
62788;SDS011;66401;42.016;21.454;2023-03-29T04:06:35;1.60;;;1.50;;
62788;SDS011;66401;42.016;21.454;2023-03-29T04:09:01;3.47;;;1.10;;
62788;SDS011;66401;42.016;21.454;2023-03-29T04:11:26;2.37;;;1.30;;
62788;SDS011;66401;42.016;21.454;2023-03-29T04:13:52;2.07;;;1.20;;
62788;SDS011;66401;42.016;21.454;2023-03-29T04:16:17;1.47;;;1.37;;
62788;SDS011;66401;42.016;21.454;2023-03-29T04:18:43;1.43;;;1.20;;
62788;SDS011;66401;42.016;21.454;2023-03-29T04:21:08;1.47;;;1.33;;
62788;SDS011;66401;42.016;21.454;2023-03-29T04:23:34;2.87;;;1.77;;
62788;SDS011;66401;42.016;21.454;2023-03-29T04:26:00;1.37;;;1.27;;
62788;SDS011;66401;42.016;21.454;2023-03-29T04:28:25;1.27;;;1.17;;
62788;SDS011;66401;42.016;21.454;2023-03-29T04:30:51;1.43;;;1.30;;
62788;SDS011;66401;42.016;21.454;2023-03-29T04:33:16;2.43;;;1.27;;
62788;SDS011;66401;42.016;21.454;2023-03-29T04:35:42;1.20;;;1.10;;
62788;SDS011;66401;42.016;21.454;2023-03-29T04:38:08;1.13;;;1.03;;
62788;SDS011;66401;42.016;21.454;2023-03-29T04:40:34;1.70;;;1.30;;
62788;SDS011;66401;42.016;21.454;2023-03-29T04:43:00;1.17;;;1.03;;
62788;SDS011;66401;42.016;21.454;2023-03-29T04:45:26;2.93;;;1.40;;
62788;SDS011;66401;42.016;21.454;2023-03-29T04:47:55;0.90;;;0.87;;
62788;SDS011;66401;42.016;21.454;2023-03-29T04:50:21;1.47;;;1.37;;
62788;SDS011;66401;42.016;21.454;2023-03-29T04:52:46;2.17;;;1.27;;
62788;SDS011;66401;42.016;21.454;2023-03-29T04:55:11;2.00;;;1.63;;
62788;SDS011;66401;42.016;21.454;2023-03-29T04:57:37;1.67;;;1.40;;
62788;SDS011;66401;42.016;21.454;2023-03-29T05:00:03;2.07;;;1.10;;
62788;SDS011;66401;42.016;21.454;2023-03-29T05:02:38;1.30;;;1.20;;
62788;SDS011;66401;42.016;21.454;2023-03-29T05:05:03;1.90;;;1.60;;
62788;SDS011;66401;42.016;21.454;2023-03-29T05:07:29;1.63;;;1.27;;
62788;SDS011;66401;42.016;21.454;2023-03-29T05:09:54;1.80;;;1.47;;
62788;SDS011;66401;42.016;21.454;2023-03-29T05:12:20;1.43;;;1.20;;
62788;SDS011;66401;42.016;21.454;2023-03-29T05:14:46;2.43;;;1.27;;
62788;SDS011;66401;42.016;21.454;2023-03-29T05:17:11;1.73;;;1.40;;
62788;SDS011;66401;42.016;21.454;2023-03-29T05:19:37;3.97;;;1.23;;
62788;SDS011;66401;42.016;21.454;2023-03-29T05:22:02;1.20;;;1.13;;
62788;SDS011;66401;42.016;21.454;2023-03-29T05:24:28;1.07;;;1.00;;
62788;SDS011;66401;42.016;21.454;2023-03-29T05:26:53;2.40;;;1.70;;
62788;SDS011;66401;42.016;21.454;2023-03-29T05:29:19;2.13;;;1.30;;
62788;SDS011;66401;42.016;21.454;2023-03-29T05:31:45;1.07;;;1.07;;
62788;SDS011;66401;42.016;21.454;2023-03-29T05:34:11;1.40;;;1.30;;
62788;SDS011;66401;42.016;21.454;2023-03-29T05:36:37;1.23;;;1.13;;
62788;SDS011;66401;42.016;21.454;2023-03-29T05:39:03;2.00;;;1.20;;
62788;SDS011;66401;42.016;21.454;2023-03-29T05:41:30;1.50;;;1.40;;
62788;SDS011;66401;42.016;21.454;2023-03-29T05:43:56;1.87;;;1.40;;
62788;SDS011;66401;42.016;21.454;2023-03-29T05:46:22;1.07;;;0.97;;
62788;SDS011;66401;42.016;21.454;2023-03-29T05:48:47;1.80;;;1.40;;
62788;SDS011;66401;42.016;21.454;2023-03-29T05:51:13;2.10;;;1.37;;
62788;SDS011;66401;42.016;21.454;2023-03-29T05:53:38;2.73;;;1.60;;
62788;SDS011;66401;42.016;21.454;2023-03-29T05:56:04;1.63;;;1.53;;
62788;SDS011;66401;42.016;21.454;2023-03-29T05:58:32;1.80;;;1.70;;
62788;SDS011;66401;42.016;21.454;2023-03-29T06:00:58;4.37;;;2.70;;
62788;SDS011;66401;42.016;21.454;2023-03-29T06:03:24;4.43;;;1.40;;
62788;SDS011;66401;42.016;21.454;2023-03-29T06:05:57;1.37;;;1.27;;
62788;SDS011;66401;42.016;21.454;2023-03-29T06:08:26;1.47;;;1.37;;
62788;SDS011;66401;42.016;21.454;2023-03-29T06:11:05;1.93;;;1.70;;
62788;SDS011;66401;42.016;21.454;2023-03-29T06:13:32;2.50;;;1.20;;
62788;SDS011;66401;42.016;21.454;2023-03-29T06:15:58;1.67;;;1.57;;
62788;SDS011;66401;42.016;21.454;2023-03-29T06:18:24;2.47;;;1.60;;
62788;SDS011;66401;42.016;21.454;2023-03-29T06:20:51;1.70;;;1.47;;
62788;SDS011;66401;42.016;21.454;2023-03-29T06:23:17;1.47;;;1.37;;
62788;SDS011;66401;42.016;21.454;2023-03-29T06:25:44;2.83;;;1.10;;
62788;SDS011;66401;42.016;21.454;2023-03-29T06:28:10;1.13;;;1.13;;
62788;SDS011;66401;42.016;21.454;2023-03-29T06:30:37;1.43;;;1.10;;
62788;SDS011;66401;42.016;21.454;2023-03-29T06:33:03;1.70;;;1.60;;
62788;SDS011;66401;42.016;21.454;2023-03-29T06:35:32;2.83;;;1.50;;
62788;SDS011;66401;42.016;21.454;2023-03-29T06:37:58;3.47;;;1.47;;
62788;SDS011;66401;42.016;21.454;2023-03-29T06:40:24;2.47;;;1.50;;
62788;SDS011;66401;42.016;21.454;2023-03-29T06:42:51;1.53;;;1.43;;
62788;SDS011;66401;42.016;21.454;2023-03-29T06:45:22;6.43;;;1.90;;
62788;SDS011;66401;42.016;21.454;2023-03-29T06:47:48;5.10;;;1.40;;
62788;SDS011;66401;42.016;21.454;2023-03-29T06:50:14;2.87;;;1.43;;
62788;SDS011;66401;42.016;21.454;2023-03-29T06:52:41;3.23;;;1.60;;
62788;SDS011;66401;42.016;21.454;2023-03-29T06:55:07;1.53;;;1.43;;
62788;SDS011;66401;42.016;21.454;2023-03-29T06:57:35;3.50;;;1.33;;
62788;SDS011;66401;42.016;21.454;2023-03-29T07:00:01;1.63;;;1.50;;
62788;SDS011;66401;42.016;21.454;2023-03-29T07:02:33;2.10;;;1.53;;
62788;SDS011;66401;42.016;21.454;2023-03-29T07:04:59;1.67;;;1.57;;
62788;SDS011;66401;42.016;21.454;2023-03-29T07:07:26;1.27;;;1.27;;
62788;SDS011;66401;42.016;21.454;2023-03-29T07:09:57;1.97;;;1.60;;
62788;SDS011;66401;42.016;21.454;2023-03-29T07:12:22;3.13;;;1.50;;
62788;SDS011;66401;42.016;21.454;2023-03-29T07:14:48;2.43;;;1.30;;
62788;SDS011;66401;42.016;21.454;2023-03-29T07:17:13;2.53;;;1.50;;
62788;SDS011;66401;42.016;21.454;2023-03-29T07:19:40;1.67;;;1.57;;
62788;SDS011;66401;42.016;21.454;2023-03-29T07:22:06;2.07;;;1.90;;
62788;SDS011;66401;42.016;21.454;2023-03-29T07:24:32;2.57;;;1.10;;
62788;SDS011;66401;42.016;21.454;2023-03-29T07:26:57;1.90;;;1.47;;
62788;SDS011;66401;42.016;21.454;2023-03-29T07:29:23;1.30;;;1.20;;
62788;SDS011;66401;42.016;21.454;2023-03-29T07:31:48;1.87;;;1.37;;
62788;SDS011;66401;42.016;21.454;2023-03-29T07:34:14;5.17;;;1.23;;
62788;SDS011;66401;42.016;21.454;2023-03-29T07:36:41;2.87;;;1.47;;
62788;SDS011;66401;42.016;21.454;2023-03-29T07:39:09;2.17;;;1.67;;
62788;SDS011;66401;42.016;21.454;2023-03-29T07:41:36;3.17;;;1.40;;
62788;SDS011;66401;42.016;21.454;2023-03-29T07:44:02;2.77;;;1.60;;
62788;SDS011;66401;42.016;21.454;2023-03-29T07:46:33;1.50;;;1.40;;
62788;SDS011;66401;42.016;21.454;2023-03-29T07:49:00;3.83;;;1.50;;
62788;SDS011;66401;42.016;21.454;2023-03-29T07:51:26;1.77;;;1.67;;
62788;SDS011;66401;42.016;21.454;2023-03-29T07:53:52;1.53;;;1.30;;
62788;SDS011;66401;42.016;21.454;2023-03-29T07:56:17;1.83;;;1.50;;
62788;SDS011;66401;42.016;21.454;2023-03-29T07:58:43;2.90;;;1.47;;
62788;SDS011;66401;42.016;21.454;2023-03-29T08:01:10;2.67;;;1.67;;
62788;SDS011;66401;42.016;21.454;2023-03-29T08:03:39;1.93;;;1.83;;
62788;SDS011;66401;42.016;21.454;2023-03-29T08:06:05;1.73;;;1.63;;
62788;SDS011;66401;42.016;21.454;2023-03-29T08:08:31;1.67;;;1.57;;
62788;SDS011;66401;42.016;21.454;2023-03-29T08:10:56;1.83;;;1.63;;
62788;SDS011;66401;42.016;21.454;2023-03-29T08:13:22;1.30;;;1.20;;
62788;SDS011;66401;42.016;21.454;2023-03-29T08:15:47;1.53;;;1.30;;
62788;SDS011;66401;42.016;21.454;2023-03-29T08:18:14;1.80;;;1.50;;
62788;SDS011;66401;42.016;21.454;2023-03-29T08:20:39;2.97;;;1.80;;
62788;SDS011;66401;42.016;21.454;2023-03-29T08:23:05;2.20;;;1.90;;
62788;SDS011;66401;42.016;21.454;2023-03-29T08:25:31;2.73;;;1.43;;
62788;SDS011;66401;42.016;21.454;2023-03-29T08:27:58;1.80;;;1.70;;
62788;SDS011;66401;42.016;21.454;2023-03-29T08:30:23;4.37;;;1.30;;
62788;SDS011;66401;42.016;21.454;2023-03-29T08:32:49;1.90;;;1.70;;
62788;SDS011;66401;42.016;21.454;2023-03-29T08:35:15;2.90;;;1.50;;
62788;SDS011;66401;42.016;21.454;2023-03-29T08:37:41;1.47;;;1.37;;
62788;SDS011;66401;42.016;21.454;2023-03-29T08:40:06;2.10;;;1.70;;
62788;SDS011;66401;42.016;21.454;2023-03-29T08:47:34;1.60;;;1.50;;
62788;SDS011;66401;42.016;21.454;2023-03-29T08:50:22;1.83;;;1.73;;
62788;SDS011;66401;42.016;21.454;2023-03-29T08:52:57;3.77;;;1.63;;
62788;SDS011;66401;42.016;21.454;2023-03-29T08:58:07;1.77;;;1.63;;
62788;SDS011;66401;42.016;21.454;2023-03-29T09:00:38;1.53;;;1.53;;
62788;SDS011;66401;42.016;21.454;2023-03-29T09:03:08;2.20;;;1.50;;
62788;SDS011;66401;42.016;21.454;2023-03-29T09:05:43;1.80;;;1.53;;
62788;SDS011;66401;42.016;21.454;2023-03-29T09:08:12;1.90;;;1.10;;
62788;SDS011;66401;42.016;21.454;2023-03-29T09:10:44;2.00;;;1.67;;
62788;SDS011;66401;42.016;21.454;2023-03-29T09:16:02;1.70;;;1.60;;
62788;SDS011;66401;42.016;21.454;2023-03-29T09:35:16;2.90;;;2.10;;
62788;SDS011;66401;42.016;21.454;2023-03-29T09:37:52;2.70;;;1.97;;
62788;SDS011;66401;42.016;21.454;2023-03-29T09:40:26;4.40;;;1.50;;
62788;SDS011;66401;42.016;21.454;2023-03-29T09:42:57;1.83;;;1.57;;
62788;SDS011;66401;42.016;21.454;2023-03-29T09:45:24;1.93;;;1.73;;
62788;SDS011;66401;42.016;21.454;2023-03-29T09:47:57;2.47;;;1.67;;
62788;SDS011;66401;42.016;21.454;2023-03-29T09:50:36;1.63;;;1.53;;
62788;SDS011;66401;42.016;21.454;2023-03-29T09:53:06;1.43;;;1.30;;
62788;SDS011;66401;42.016;21.454;2023-03-29T09:55:32;1.40;;;1.40;;
62788;SDS011;66401;42.016;21.454;2023-03-29T09:58:01;2.60;;;1.27;;
62788;SDS011;66401;42.016;21.454;2023-03-29T10:00:36;2.93;;;1.90;;
62788;SDS011;66401;42.016;21.454;2023-03-29T10:03:02;1.40;;;1.23;;
62788;SDS011;66401;42.016;21.454;2023-03-29T10:05:28;2.00;;;1.80;;
62788;SDS011;66401;42.016;21.454;2023-03-29T10:07:57;3.77;;;2.33;;
62788;SDS011;66401;42.016;21.454;2023-03-29T10:10:32;3.03;;;1.60;;
62788;SDS011;66401;42.016;21.454;2023-03-29T10:13:00;3.23;;;1.60;;
62788;SDS011;66401;42.016;21.454;2023-03-29T10:15:29;1.90;;;1.80;;
62788;SDS011;66401;42.016;21.454;2023-03-29T10:17:59;1.60;;;1.50;;
62788;SDS011;66401;42.016;21.454;2023-03-29T10:20:27;1.57;;;1.10;;
62788;SDS011;66401;42.016;21.454;2023-03-29T10:22:54;1.40;;;1.30;;
62788;SDS011;66401;42.016;21.454;2023-03-29T10:25:24;1.73;;;1.20;;
62788;SDS011;66401;42.016;21.454;2023-03-29T10:27:55;2.57;;;1.43;;
62788;SDS011;66401;42.016;21.454;2023-03-29T10:30:28;1.63;;;1.53;;
62788;SDS011;66401;42.016;21.454;2023-03-29T10:32:59;1.63;;;1.27;;
62788;SDS011;66401;42.016;21.454;2023-03-29T10:35:37;1.60;;;1.50;;
62788;SDS011;66401;42.016;21.454;2023-03-29T10:38:05;1.97;;;1.30;;
62788;SDS011;66401;42.016;21.454;2023-03-29T10:41:01;1.50;;;1.40;;
62788;SDS011;66401;42.016;21.454;2023-03-29T10:43:43;2.50;;;2.30;;
62788;SDS011;66401;42.016;21.454;2023-03-29T10:48:50;1.80;;;1.70;;
62788;SDS011;66401;42.016;21.454;2023-03-29T10:51:22;3.13;;;2.27;;
62788;SDS011;66401;42.016;21.454;2023-03-29T10:53:48;1.70;;;1.60;;
62788;SDS011;66401;42.016;21.454;2023-03-29T11:04:48;1.97;;;1.10;;
62788;SDS011;66401;42.016;21.454;2023-03-29T11:12:26;2.00;;;1.80;;
62788;SDS011;66401;42.016;21.454;2023-03-29T11:26:28;1.27;;;1.03;;
62788;SDS011;66401;42.016;21.454;2023-03-29T11:29:07;1.13;;;1.03;;
62788;SDS011;66401;42.016;21.454;2023-03-29T11:31:45;1.47;;;1.37;;
62788;SDS011;66401;42.016;21.454;2023-03-29T11:34:22;1.30;;;1.20;;
62788;SDS011;66401;42.016;21.454;2023-03-29T11:42:40;2.20;;;1.50;;
62788;SDS011;66401;42.016;21.454;2023-03-29T11:45:12;2.00;;;1.23;;
62788;SDS011;66401;42.016;21.454;2023-03-29T11:47:42;2.47;;;1.40;;
62788;SDS011;66401;42.016;21.454;2023-03-29T11:50:15;2.10;;;1.40;;
62788;SDS011;66401;42.016;21.454;2023-03-29T11:52:59;1.77;;;1.67;;
62788;SDS011;66401;42.016;21.454;2023-03-29T11:55:33;1.37;;;1.27;;
62788;SDS011;66401;42.016;21.454;2023-03-29T11:58:34;2.23;;;1.73;;
62788;SDS011;66401;42.016;21.454;2023-03-29T12:01:05;3.40;;;2.43;;
62788;SDS011;66401;42.016;21.454;2023-03-29T12:12:16;1.40;;;1.30;;
62788;SDS011;66401;42.016;21.454;2023-03-29T12:15:05;1.37;;;1.27;;
62788;SDS011;66401;42.016;21.454;2023-03-29T12:18:20;1.33;;;1.20;;
62788;SDS011;66401;42.016;21.454;2023-03-29T12:20:45;2.40;;;1.30;;
62788;SDS011;66401;42.016;21.454;2023-03-29T12:23:16;2.90;;;1.60;;
62788;SDS011;66401;42.016;21.454;2023-03-29T12:39:32;1.57;;;1.47;;
62788;SDS011;66401;42.016;21.454;2023-03-29T12:42:05;1.73;;;1.23;;
62788;SDS011;66401;42.016;21.454;2023-03-29T12:44:38;2.47;;;1.43;;
62788;SDS011;66401;42.016;21.454;2023-03-29T12:47:15;1.33;;;1.23;;
62788;SDS011;66401;42.016;21.454;2023-03-29T12:49:44;1.83;;;1.73;;
62788;SDS011;66401;42.016;21.454;2023-03-29T12:52:30;1.40;;;1.33;;
62788;SDS011;66401;42.016;21.454;2023-03-29T12:54:59;1.10;;;1.00;;
62788;SDS011;66401;42.016;21.454;2023-03-29T13:02:42;2.30;;;1.50;;
62788;SDS011;66401;42.016;21.454;2023-03-29T13:05:25;2.50;;;1.10;;
62788;SDS011;66401;42.016;21.454;2023-03-29T13:07:57;3.13;;;1.40;;
62788;SDS011;66401;42.016;21.454;2023-03-29T13:10:41;1.70;;;1.60;;
62788;SDS011;66401;42.016;21.454;2023-03-29T13:13:14;1.40;;;1.30;;
62788;SDS011;66401;42.016;21.454;2023-03-29T13:15:43;1.63;;;1.20;;
62788;SDS011;66401;42.016;21.454;2023-03-29T13:26:31;2.93;;;1.27;;
62788;SDS011;66401;42.016;21.454;2023-03-29T13:39:46;3.77;;;1.60;;
62788;SDS011;66401;42.016;21.454;2023-03-29T13:48:03;6.07;;;1.33;;
62788;SDS011;66401;42.016;21.454;2023-03-29T13:50:55;2.43;;;1.83;;
62788;SDS011;66401;42.016;21.454;2023-03-29T13:53:27;2.07;;;1.83;;
62788;SDS011;66401;42.016;21.454;2023-03-29T13:55:57;1.93;;;1.83;;
62788;SDS011;66401;42.016;21.454;2023-03-29T14:03:43;1.70;;;1.60;;
62788;SDS011;66401;42.016;21.454;2023-03-29T14:06:20;2.27;;;1.70;;
62788;SDS011;66401;42.016;21.454;2023-03-29T14:08:50;3.30;;;1.60;;
62788;SDS011;66401;42.016;21.454;2023-03-29T14:11:20;1.60;;;1.50;;
62788;SDS011;66401;42.016;21.454;2023-03-29T14:13:52;1.73;;;1.20;;
62788;SDS011;66401;42.016;21.454;2023-03-29T14:16:19;1.50;;;1.40;;
62788;SDS011;66401;42.016;21.454;2023-03-29T14:18:46;2.10;;;1.60;;
62788;SDS011;66401;42.016;21.454;2023-03-29T14:21:15;2.37;;;2.00;;
62788;SDS011;66401;42.016;21.454;2023-03-29T14:23:43;2.43;;;2.10;;
62788;SDS011;66401;42.016;21.454;2023-03-29T14:26:17;4.43;;;1.70;;
62788;SDS011;66401;42.016;21.454;2023-03-29T14:31:21;2.60;;;1.50;;
62788;SDS011;66401;42.016;21.454;2023-03-29T14:33:52;4.37;;;1.73;;
62788;SDS011;66401;42.016;21.454;2023-03-29T14:36:18;2.47;;;1.93;;
62788;SDS011;66401;42.016;21.454;2023-03-29T14:38:47;1.60;;;1.50;;
62788;SDS011;66401;42.016;21.454;2023-03-29T14:41:15;1.10;;;1.07;;
62788;SDS011;66401;42.016;21.454;2023-03-29T14:43:41;2.67;;;1.63;;
62788;SDS011;66401;42.016;21.454;2023-03-29T14:46:08;2.30;;;2.03;;
62788;SDS011;66401;42.016;21.454;2023-03-29T14:48:34;2.07;;;1.97;;
62788;SDS011;66401;42.016;21.454;2023-03-29T14:51:01;1.77;;;1.47;;
62788;SDS011;66401;42.016;21.454;2023-03-29T14:53:27;2.53;;;1.60;;
62788;SDS011;66401;42.016;21.454;2023-03-29T14:55:56;2.40;;;1.70;;
62788;SDS011;66401;42.016;21.454;2023-03-29T14:58:33;3.67;;;1.50;;
62788;SDS011;66401;42.016;21.454;2023-03-29T15:01:04;2.30;;;1.70;;
62788;SDS011;66401;42.016;21.454;2023-03-29T15:03:40;3.07;;;1.67;;
62788;SDS011;66401;42.016;21.454;2023-03-29T15:06:07;2.53;;;1.73;;
62788;SDS011;66401;42.016;21.454;2023-03-29T15:08:37;2.57;;;1.67;;
62788;SDS011;66401;42.016;21.454;2023-03-29T15:11:15;2.00;;;1.80;;
62788;SDS011;66401;42.016;21.454;2023-03-29T15:13:43;2.27;;;1.67;;
62788;SDS011;66401;42.016;21.454;2023-03-29T15:16:14;2.60;;;1.37;;
62788;SDS011;66401;42.016;21.454;2023-03-29T15:18:43;2.57;;;1.60;;
62788;SDS011;66401;42.016;21.454;2023-03-29T15:21:11;2.03;;;1.30;;
62788;SDS011;66401;42.016;21.454;2023-03-29T15:23:54;2.03;;;1.60;;
62788;SDS011;66401;42.016;21.454;2023-03-29T15:26:25;3.43;;;2.10;;
62788;SDS011;66401;42.016;21.454;2023-03-29T15:29:05;1.87;;;1.57;;
62788;SDS011;66401;42.016;21.454;2023-03-29T15:31:35;2.90;;;1.90;;
62788;SDS011;66401;42.016;21.454;2023-03-29T15:34:06;2.33;;;2.13;;
62788;SDS011;66401;42.016;21.454;2023-03-29T15:36:42;2.00;;;1.90;;
62788;SDS011;66401;42.016;21.454;2023-03-29T15:39:13;2.33;;;2.00;;
62788;SDS011;66401;42.016;21.454;2023-03-29T15:41:40;3.30;;;1.73;;
62788;SDS011;66401;42.016;21.454;2023-03-29T15:44:07;4.13;;;2.10;;
62788;SDS011;66401;42.016;21.454;2023-03-29T15:46:33;2.33;;;2.07;;
62788;SDS011;66401;42.016;21.454;2023-03-29T15:48:59;3.00;;;2.73;;
62788;SDS011;66401;42.016;21.454;2023-03-29T15:51:24;3.03;;;2.20;;
62788;SDS011;66401;42.016;21.454;2023-03-29T15:53:50;4.37;;;2.30;;
62788;SDS011;66401;42.016;21.454;2023-03-29T15:56:16;2.73;;;2.10;;
62788;SDS011;66401;42.016;21.454;2023-03-29T15:58:44;2.60;;;1.70;;
62788;SDS011;66401;42.016;21.454;2023-03-29T16:01:30;4.03;;;1.63;;
62788;SDS011;66401;42.016;21.454;2023-03-29T16:04:01;3.23;;;2.00;;
62788;SDS011;66401;42.016;21.454;2023-03-29T16:06:29;3.50;;;2.17;;
62788;SDS011;66401;42.016;21.454;2023-03-29T16:08:55;3.17;;;2.00;;
62788;SDS011;66401;42.016;21.454;2023-03-29T16:11:20;1.90;;;1.80;;
62788;SDS011;66401;42.016;21.454;2023-03-29T16:13:46;3.13;;;2.07;;
62788;SDS011;66401;42.016;21.454;2023-03-29T16:16:11;3.67;;;2.57;;
62788;SDS011;66401;42.016;21.454;2023-03-29T16:18:37;2.00;;;1.80;;
62788;SDS011;66401;42.016;21.454;2023-03-29T16:21:03;2.30;;;1.50;;
62788;SDS011;66401;42.016;21.454;2023-03-29T16:23:29;2.47;;;1.70;;
62788;SDS011;66401;42.016;21.454;2023-03-29T16:25:55;4.73;;;1.67;;
62788;SDS011;66401;42.016;21.454;2023-03-29T16:28:23;1.97;;;1.83;;
62788;SDS011;66401;42.016;21.454;2023-03-29T16:30:49;2.57;;;1.90;;
62788;SDS011;66401;42.016;21.454;2023-03-29T16:33:15;1.40;;;1.30;;
62788;SDS011;66401;42.016;21.454;2023-03-29T16:35:40;1.47;;;1.37;;
62788;SDS011;66401;42.016;21.454;2023-03-29T16:38:06;3.50;;;1.90;;
62788;SDS011;66401;42.016;21.454;2023-03-29T16:40:33;2.83;;;2.10;;
62788;SDS011;66401;42.016;21.454;2023-03-29T16:42:59;9.13;;;2.47;;
62788;SDS011;66401;42.016;21.454;2023-03-29T16:45:24;3.40;;;1.83;;
62788;SDS011;66401;42.016;21.454;2023-03-29T16:47:50;4.03;;;1.97;;
62788;SDS011;66401;42.016;21.454;2023-03-29T16:50:16;2.00;;;1.90;;
62788;SDS011;66401;42.016;21.454;2023-03-29T16:52:44;4.03;;;2.03;;
62788;SDS011;66401;42.016;21.454;2023-03-29T16:55:12;3.00;;;1.93;;
62788;SDS011;66401;42.016;21.454;2023-03-29T16:57:39;6.27;;;1.83;;
62788;SDS011;66401;42.016;21.454;2023-03-29T17:00:06;2.77;;;2.13;;
62788;SDS011;66401;42.016;21.454;2023-03-29T17:02:35;3.67;;;2.40;;
62788;SDS011;66401;42.016;21.454;2023-03-29T17:05:01;5.80;;;2.47;;
62788;SDS011;66401;42.016;21.454;2023-03-29T17:07:27;3.13;;;2.83;;
62788;SDS011;66401;42.016;21.454;2023-03-29T17:09:53;6.40;;;3.97;;
62788;SDS011;66401;42.016;21.454;2023-03-29T17:12:20;5.50;;;3.97;;
62788;SDS011;66401;42.016;21.454;2023-03-29T17:14:46;5.37;;;4.30;;